Time;durP1;ratioP1;P1;durP2;ratioP2;P2;SDS_P1;SDS_P2;PMS_P1;PMS_P2;Temp;Humidity;BMP_temperature;BMP_pressure;BME280_temperature;BME280_humidity;BME280_pressure;Samples;Min_cycle;Max_cycle;Signal;HPM_P1;HPM_P2
2022/11/24 00:00:33;;;;;;;12.00;4.47;;;;;;;9.25;55.93;99026.97;10491950;28;20235;-66
2022/11/24 00:05:37;;;;;;;7.27;2.70;;;;;;;7.68;58.99;99093.09;10492680;28;20292;-65
2022/11/24 00:10:38;;;;;;;9.03;3.60;;;;;;;9.25;56.64;99009.13;10493550;28;20257;-66
2022/11/24 00:15:40;;;;;;;8.83;3.63;;;;;;;9.30;56.36;99022.72;10500350;28;20278;-66
2022/11/24 00:20:41;;;;;;;7.70;3.93;;;;;;;8.11;58.70;99090.63;10500508;28;20227;-65
2022/11/24 00:25:43;;;;;;;5.40;3.27;;;;;;;8.90;57.66;99041.06;10505154;28;20292;-65
2022/11/24 00:30:45;;;;;;;8.53;3.47;;;;;;;7.66;59.80;99095.13;10494064;28;20296;-66
2022/11/24 00:35:56;;;;;;;5.93;3.40;;;;;;;9.34;57.21;99010.63;10515417;28;20233;-66
2022/11/24 00:40:57;;;;;;;7.33;3.30;;;;;;;8.42;58.33;99054.94;10505206;28;20760;-65
2022/11/24 00:45:59;;;;;;;8.97;3.43;;;;;;;9.05;57.77;99035.66;10482359;28;20284;-66
2022/11/24 00:51:04;;;;;;;5.13;2.87;;;;;;;7.32;59.66;99104.41;10488661;28;20232;-67
2022/11/24 00:56:07;;;;;;;5.57;3.53;;;;;;;8.57;58.69;99075.38;10497383;28;20234;-67
2022/11/24 01:01:16;;;;;;;8.00;3.40;;;;;;;9.11;56.43;99080.28;10501159;28;20268;-66
2022/11/24 01:06:20;;;;;;;7.83;3.73;;;;;;;9.06;56.61;99114.69;10493118;28;20869;-69
2022/11/24 01:11:24;;;;;;;7.43;3.50;;;;;;;9.81;55.25;99133.81;10507510;28;20223;-67
2022/11/24 01:16:33;;;;;;;6.20;3.57;;;;;;;9.18;56.14;99136.38;10492788;28;20272;-67
2022/11/24 01:21:34;;;;;;;5.57;3.53;;;;;;;10.12;54.41;99153.97;10505185;28;20235;-67
2022/11/24 01:26:36;;;;;;;7.27;2.90;;;;;;;9.03;55.78;99152.47;10494686;28;20233;-66
2022/11/24 01:31:38;;;;;;;7.53;2.80;;;;;;;9.83;54.63;99157.69;10499278;28;20200;-67
2022/11/24 01:36:40;;;;;;;5.30;3.30;;;;;;;9.29;54.92;99183.09;10507941;28;20602;-66
2022/11/24 01:41:41;;;;;;;6.20;3.17;;;;;;;9.87;54.14;99181.16;10493192;28;20606;-67
2022/11/24 01:46:46;;;;;;;6.30;3.00;;;;;;;9.54;55.35;99196.91;10501787;28;20541;-67
2022/11/24 01:51:57;;;;;;;6.53;3.17;;;;;;;9.41;55.24;99176.22;10491388;28;20731;-67
2022/11/24 01:57:10;;;;;;;10.07;3.47;;;;;;;9.32;54.76;99172.88;10498102;28;20593;-66
2022/11/24 02:02:12;;;;;;;8.80;3.70;;;;;;;9.76;54.32;99173.66;10482284;28;20230;-65
2022/11/24 02:07:14;;;;;;;10.63;3.53;;;;;;;9.40;55.20;99195.97;10496714;28;20324;-66
2022/11/24 02:12:16;;;;;;;8.50;3.43;;;;;;;9.78;54.32;99158.25;10485337;28;20250;-67
2022/11/24 02:17:18;;;;;;;7.13;3.40;;;;;;;10.27;53.47;99184.09;10494933;28;20250;-67
2022/11/24 02:22:35;;;;;;;7.80;3.10;;;;;;;9.34;54.81;99178.84;10492873;28;20255;-66
2022/11/24 02:27:37;;;;;;;8.37;3.10;;;;;;;9.81;53.96;99170.41;10494981;28;20236;-67
2022/11/24 02:32:40;;;;;;;7.57;3.43;;;;;;;9.48;55.22;99187.78;10493540;28;20221;-67
2022/11/24 02:37:42;;;;;;;6.67;3.13;;;;;;;8.88;56.07;99213.06;10498783;28;20231;-67
2022/11/24 02:42:45;;;;;;;9.27;3.27;;;;;;;9.59;54.38;99187.28;10499026;28;20254;-66
2022/11/24 02:47:47;;;;;;;12.00;3.33;;;;;;;9.16;54.57;99195.31;10491749;28;20261;-67
2022/11/24 02:52:49;;;;;;;9.90;3.80;;;;;;;10.42;52.58;99209.91;10482384;28;20228;-67
2022/11/24 02:57:50;;;;;;;8.27;3.10;;;;;;;10.54;52.42;99219.00;10495666;28;20377;-64
2022/11/24 03:02:52;;;;;;;8.07;3.20;;;;;;;9.30;54.62;99203.44;10471905;28;20956;-66
2022/11/24 03:07:54;;;;;;;6.40;3.10;;;;;;;9.15;55.62;99211.50;10501607;28;20234;-66
2022/11/24 03:12:55;;;;;;;7.10;3.03;;;;;;;9.48;54.75;99185.13;10487259;28;20259;-65
2022/11/24 03:17:57;;;;;;;10.17;3.97;;;;;;;8.08;57.47;99213.59;10487832;28;20291;-66
2022/11/24 03:22:58;;;;;;;5.20;2.77;;;;;;;9.13;55.73;99189.50;10488221;28;20236;-66
2022/11/24 03:28:00;;;;;;;6.17;3.53;;;;;;;8.69;56.49;99182.41;10491163;28;20244;-67
2022/11/24 03:33:03;;;;;;;10.00;3.10;;;;;;;8.04;57.66;99214.97;10486988;28;20250;-66
2022/11/24 03:38:05;;;;;;;6.47;3.27;;;;;;;9.29;55.50;99154.56;10491727;28;20234;-67
2022/11/24 03:43:07;;;;;;;6.63;3.33;;;;;;;8.50;57.28;99197.16;10480659;28;20281;-67
2022/11/24 03:48:08;;;;;;;7.50;3.10;;;;;;;8.91;56.71;99183.31;10507884;28;20672;-65
2022/11/24 03:53:10;;;;;;;6.23;3.63;;;;;;;9.43;55.61;99168.03;10494696;28;20861;-67
2022/11/24 03:58:11;;;;;;;10.17;3.70;;;;;;;9.86;54.07;99187.53;10500007;28;20734;-69
2022/11/24 04:03:13;;;;;;;6.97;3.60;;;;;;;9.14;55.40;99202.66;10491941;28;20235;-69
2022/11/24 04:08:15;;;;;;;9.20;3.77;;;;;;;9.55;55.04;99195.84;10498730;28;20354;-69
2022/11/24 04:13:20;;;;;;;13.27;3.87;;;;;;;8.60;56.66;99249.19;10502882;28;20227;-69
2022/11/24 04:18:21;;;;;;;13.00;4.23;;;;;;;8.52;57.06;99243.94;10499753;28;20235;-69
2022/11/24 04:23:23;;;;;;;9.97;3.67;;;;;;;9.19;55.68;99191.41;10494190;28;20224;-69
2022/11/24 04:28:26;;;;;;;10.20;3.53;;;;;;;9.77;54.68;99186.81;10508509;28;20254;-68
2022/11/24 04:33:27;;;;;;;8.33;3.73;;;;;;;9.53;55.40;99201.41;10498265;28;20854;-68
2022/11/24 04:38:29;;;;;;;6.40;3.10;;;;;;;8.55;57.05;99235.56;10505215;28;20257;-69
2022/11/24 04:43:50;;;;;;;8.17;3.30;;;;;;;7.96;57.62;99232.88;10483661;28;20305;-71
2022/11/24 04:48:52;;;;;;;7.87;3.37;;;;;;;9.50;55.04;99198.28;10512882;28;20277;-68
2022/11/24 04:53:54;;;;;;;9.27;3.63;;;;;;;7.94;57.62;99257.03;10495606;28;20223;-68
2022/11/24 04:58:55;;;;;;;8.77;3.53;;;;;;;8.92;56.66;99239.16;10489018;28;20277;-68
2022/11/24 05:05:10;;;;;;;10.20;3.10;;;;;;;7.41;59.94;99230.28;10501394;27;20387;-71
2022/11/24 05:15:32;;;;;;;13.60;4.17;;;;;;;7.13;60.76;99256.56;10474392;27;20226;-68
2022/11/24 05:20:35;;;;;;;8.63;3.33;;;;;;;7.71;59.41;99223.25;10457325;28;20231;-68
2022/11/24 05:25:38;;;;;;;7.83;3.20;;;;;;;7.78;59.60;99226.00;10418304;28;20354;-68
2022/11/24 05:30:44;;;;;;;9.47;3.60;;;;;;;7.52;59.83;99221.88;10454457;28;20937;-68
2022/11/24 05:35:47;;;;;;;10.57;3.77;;;;;;;8.14;59.21;99227.22;10423226;28;20232;-68
2022/11/24 05:40:49;;;;;;;13.57;3.50;;;;;;;9.20;57.53;99241.97;10439697;28;20219;-68
2022/11/24 05:45:51;;;;;;;15.23;4.13;;;;;;;9.42;57.00;99259.84;10487353;28;20235;-68
2022/11/24 05:50:57;;;;;;;12.67;4.43;;;;;;;9.42;56.50;99290.06;10492097;28;20666;-68
2022/11/24 05:56:02;;;;;;;14.70;3.97;;;;;;;8.97;57.76;99291.97;10485800;28;21970;-68
2022/11/24 06:01:05;;;;;;;12.93;4.43;;;;;;;8.39;58.14;99297.09;10477018;28;20280;-71
2022/11/24 06:06:07;;;;;;;13.07;4.23;;;;;;;8.71;58.60;99306.59;10501335;28;20239;-69
2022/11/24 06:11:18;;;;;;;13.73;4.43;;;;;;;8.89;57.64;99334.78;10467952;28;20228;-69
2022/11/24 06:16:20;;;;;;;13.20;4.20;;;;;;;8.15;59.52;99325.66;10418843;28;20905;-70
2022/11/24 06:21:21;;;;;;;12.17;3.63;;;;;;;7.40;61.11;99347.59;10460205;28;20681;-69
2022/11/24 06:26:23;;;;;;;14.47;4.33;;;;;;;7.50;61.44;99330.38;10427152;28;20732;-68
2022/11/24 06:31:25;;;;;;;15.37;4.60;;;;;;;7.61;60.95;99337.16;10397133;28;20238;-70
2022/11/24 06:36:26;;;;;;;11.03;3.70;;;;;;;8.25;60.50;99323.56;10401100;28;20236;-70
2022/11/24 06:41:28;;;;;;;17.80;4.97;;;;;;;6.37;64.42;99350.00;10448325;28;20255;-68
2022/11/24 06:46:30;;;;;;;11.67;3.67;;;;;;;7.62;62.42;99349.44;10478246;28;20234;-68
2022/11/24 06:51:32;;;;;;;14.07;3.87;;;;;;;8.82;59.59;99323.97;10466856;28;20691;-68
2022/11/24 06:56:34;;;;;;;9.60;3.27;;;;;;;8.76;58.83;99341.56;10455785;28;20242;-68
2022/11/24 07:01:35;;;;;;;7.07;3.23;;;;;;;7.72;60.30;99334.06;10463547;28;20243;-68
2022/11/24 07:06:40;;;;;;;9.03;3.57;;;;;;;7.75;60.27;99330.25;10451019;28;20384;-68
2022/11/24 07:11:41;;;;;;;6.90;3.10;;;;;;;8.02;60.39;99352.88;10485961;28;20223;-68
2022/11/24 07:16:43;;;;;;;8.27;2.73;;;;;;;7.53;60.94;99350.53;10482015;28;20235;-68
2022/11/24 07:21:45;;;;;;;10.83;3.10;;;;;;;9.08;58.42;99368.91;10486214;28;20258;-68
2022/11/24 07:26:46;;;;;;;6.97;3.67;;;;;;;8.14;59.21;99403.94;10465148;28;20228;-68
2022/11/24 07:31:48;;;;;;;7.80;3.13;;;;;;;9.10;57.19;99406.94;10441439;28;20233;-69
2022/11/24 07:36:50;;;;;;;5.90;3.07;;;;;;;8.18;58.28;99423.88;10458126;28;20285;-68
2022/11/24 07:41:52;;;;;;;6.40;2.63;;;;;;;6.83;60.68;99417.78;10449585;28;20679;-68
2022/11/24 07:46:54;;;;;;;5.07;3.07;;;;;;;8.34;58.94;99436.28;10479276;28;20235;-71
2022/11/24 07:51:55;;;;;;;3.90;2.70;;;;;;;9.15;57.39;99457.09;10477886;28;20246;-68
2022/11/24 07:56:57;;;;;;;6.63;3.00;;;;;;;9.09;56.34;99473.84;10480935;28;20236;-71
2022/11/24 08:01:58;;;;;;;3.93;2.37;;;;;;;7.76;57.81;99450.91;10473318;28;20580;-68
2022/11/24 08:07:01;;;;;;;4.97;2.10;;;;;;;8.89;56.37;99485.00;10481223;28;20248;-67
2022/11/24 08:12:03;;;;;;;3.63;2.00;;;;;;;8.96;57.28;99482.47;10471542;28;20224;-66
2022/11/24 08:17:04;;;;;;;3.47;2.47;;;;;;;7.81;57.61;99501.84;10477176;28;20224;-65
2022/11/24 08:22:06;;;;;;;4.10;2.33;;;;;;;8.62;56.52;99515.72;10471700;28;20895;-67
2022/11/24 08:27:08;;;;;;;3.63;2.27;;;;;;;7.99;57.85;99534.44;10476172;28;20235;-67
2022/11/24 08:32:10;;;;;;;2.50;2.30;;;;;;;8.42;56.24;99555.34;10478275;28;20715;-67
2022/11/24 08:37:17;;;;;;;3.33;1.90;;;;;;;7.78;58.58;99566.09;10448613;28;20242;-67
2022/11/24 08:42:19;;;;;;;1.90;1.80;;;;;;;9.02;55.80;99569.81;10431252;28;20242;-67
2022/11/24 08:47:21;;;;;;;2.40;2.20;;;;;;;9.58;55.39;99580.16;10457956;28;20614;-66
2022/11/24 08:52:23;;;;;;;2.13;1.93;;;;;;;10.05;54.02;99597.69;10479718;28;20219;-66
2022/11/24 08:57:24;;;;;;;2.50;2.30;;;;;;;9.51;54.86;99613.94;10474816;28;20620;-67
2022/11/24 09:02:26;;;;;;;2.77;2.30;;;;;;;9.96;54.48;99630.91;10473716;28;20238;-66
2022/11/24 09:07:28;;;;;;;3.10;2.60;;;;;;;10.08;54.01;99640.09;10482926;28;20289;-67
2022/11/24 09:12:29;;;;;;;4.10;2.23;;;;;;;10.61;52.76;99661.34;10480466;28;20231;-67
2022/11/24 09:17:31;;;;;;;4.47;2.80;;;;;;;9.71;54.20;99668.53;10474603;28;20247;-69
2022/11/24 09:22:34;;;;;;;6.47;2.40;;;;;;;9.73;54.40;99653.13;10477318;28;20749;-67
2022/11/24 09:27:36;;;;;;;3.80;2.63;;;;;;;10.87;52.83;99692.97;10487373;28;20904;-66
2022/11/24 09:32:37;;;;;;;4.67;3.50;;;;;;;9.02;56.12;99705.94;10480984;28;20233;-67
2022/11/24 09:37:39;;;;;;;9.03;3.00;;;;;;;8.37;58.45;99709.69;10454305;28;20647;-67
2022/11/24 09:43:02;;;;;;;6.73;2.90;;;;;;;9.27;57.41;99676.41;10461832;28;20765;-67
2022/11/24 09:48:21;;;;;;;5.03;3.00;;;;;;;9.24;58.14;99676.78;10487379;28;20226;-68
2022/11/24 09:53:25;;;;;;;6.50;3.60;;;;;;;8.61;58.81;99682.94;10499722;28;20804;-67
2022/11/24 09:58:34;;;;;;;7.97;3.33;;;;;;;10.23;56.32;99682.06;10496106;28;20239;-65
2022/11/24 10:03:42;;;;;;;8.77;3.57;;;;;;;10.28;56.48;99683.16;10493574;28;20597;-65
2022/11/24 10:09:02;;;;;;;7.00;3.53;;;;;;;10.57;54.22;99680.66;10499003;28;20480;-66
2022/11/24 10:14:22;;;;;;;5.10;2.80;;;;;;;9.76;58.32;99665.31;10494074;28;20388;-66
2022/11/24 10:19:49;;;;;;;7.83;4.17;;;;;;;9.59;57.58;99661.97;10498642;28;20237;-67
2022/11/24 10:25:00;;;;;;;8.47;3.60;;;;;;;9.87;58.33;99648.00;10484982;28;20230;-67
2022/11/24 10:30:10;;;;;;;11.53;4.07;;;;;;;10.50;55.24;99669.88;10472821;28;20690;-67
2022/11/24 10:35:21;;;;;;;13.43;5.20;;;;;;;11.93;53.29;99708.44;10449375;28;20236;-68
2022/11/24 10:40:40;;;;;;;11.90;4.47;;;;;;;11.06;55.43;99686.19;10440610;28;20976;-66
2022/11/24 10:46:26;;;;;;;12.73;4.37;;;;;;;11.96;53.97;99691.09;10440155;28;20305;-67
2022/11/24 10:51:33;;;;;;;8.27;3.87;;;;;;;10.53;55.95;99672.19;10445234;28;20502;-67
2022/11/24 10:56:40;;;;;;;8.23;3.53;;;;;;;12.33;53.25;99692.59;10442097;28;20265;-65
2022/11/24 11:06:13;;;;;;;16.00;4.03;;;;;;;8.87;59.93;99660.50;10521304;27;20786;-66
2022/11/24 11:11:27;;;;;;;9.30;3.30;;;;;;;9.40;59.04;99637.41;10450040;28;20228;-67
2022/11/24 11:16:40;;;;;;;15.03;4.03;;;;;;;8.34;60.80;99667.41;10439189;28;20232;-67
2022/11/24 11:21:41;;;;;;;12.00;4.40;;;;;;;9.52;58.80;99621.78;10449985;28;20223;-67
2022/11/24 11:26:43;;;;;;;9.97;4.20;;;;;;;9.93;56.85;99632.06;10453925;28;20243;-67
2022/11/24 11:32:03;;;;;;;16.17;4.13;;;;;;;10.46;56.15;99637.31;10461690;28;20227;-67
2022/11/24 11:37:29;;;;;;;9.83;3.67;;;;;;;10.06;56.71;99636.78;10457687;28;20259;-67
2022/11/24 11:42:37;;;;;;;7.60;3.43;;;;;;;10.38;56.51;99652.63;10457369;28;20281;-67
2022/11/24 11:48:02;;;;;;;16.07;5.37;;;;;;;10.62;55.99;99656.84;10455577;28;20771;-67
2022/11/24 11:53:16;;;;;;;9.33;3.87;;;;;;;10.24;56.04;99654.28;10456676;28;20227;-69
2022/11/24 11:59:01;;;;;;;12.23;3.90;;;;;;;10.19;55.06;99654.88;10447690;28;20231;-68
2022/11/24 12:04:28;;;;;;;11.50;4.33;;;;;;;10.63;54.70;99662.00;10422539;28;20795;-66
2022/11/24 12:09:40;;;;;;;9.77;4.30;;;;;;;9.92;55.49;99686.56;10429666;28;20243;-68
2022/11/24 12:15:00;;;;;;;14.17;4.37;;;;;;;10.70;53.46;99681.63;10425587;28;20235;-65
2022/11/24 12:20:34;;;;;;;12.33;3.60;;;;;;;10.69;52.62;99684.50;10436727;28;20293;-66
2022/11/24 12:25:54;;;;;;;9.43;3.10;;;;;;;10.75;51.99;99715.06;10423764;28;20327;-68
2022/11/24 12:30:56;;;;;;;8.00;3.20;;;;;;;11.94;50.56;99742.25;10394079;28;20236;-68
2022/11/24 12:36:26;;;;;;;8.20;3.93;;;;;;;11.41;51.36;99734.56;10405004;28;20256;-67
2022/11/24 12:41:46;;;;;;;10.20;4.20;;;;;;;10.98;51.06;99721.09;10365773;28;20233;-67
2022/11/24 12:46:57;;;;;;;9.87;4.17;;;;;;;11.17;51.29;99732.22;10365041;28;20250;-67
2022/11/24 12:52:04;;;;;;;14.23;4.80;;;;;;;11.83;50.35;99758.88;10399742;28;20224;-69
2022/11/24 12:57:24;;;;;;;9.33;4.13;;;;;;;11.93;49.94;99756.69;10419552;28;20228;-67
2022/11/24 13:03:13;;;;;;;12.80;5.23;;;;;;;11.53;50.84;99734.03;10425615;28;20259;-67
2022/11/24 13:08:15;;;;;;;10.30;3.60;;;;;;;12.37;49.55;99762.78;10413831;28;20735;-67
2022/11/24 13:13:17;;;;;;;9.93;4.00;;;;;;;12.48;49.34;99740.78;10419374;28;20237;-66
2022/11/24 13:18:40;;;;;;;10.17;4.23;;;;;;;12.54;48.96;99764.16;10417515;28;20298;-68
2022/11/24 13:23:54;;;;;;;7.10;3.30;;;;;;;12.31;50.09;99752.84;10406902;28;20232;-66
2022/11/24 13:28:57;;;;;;;12.03;4.20;;;;;;;11.80;50.69;99738.63;10401369;28;20223;-67
2022/11/24 13:34:53;;;;;;;12.70;4.07;;;;;;;12.32;49.53;99739.22;10390158;28;20225;-67
2022/11/24 13:39:59;;;;;;;8.07;3.30;;;;;;;10.89;50.03;99749.84;10346875;28;20702;-66
2022/11/24 13:45:04;;;;;;;10.50;4.00;;;;;;;11.17;49.07;99722.38;10371044;28;20279;-67
2022/11/24 13:50:22;;;;;;;10.87;5.90;;;;;;;11.76;48.54;99729.34;10431200;28;20228;-66
2022/11/24 13:55:31;;;;;;;7.73;2.90;;;;;;;11.96;47.97;99728.66;10419522;28;20258;-67
2022/11/24 14:00:52;;;;;;;14.57;3.73;;;;;;;11.50;48.66;99721.03;10413179;28;20235;-66
2022/11/24 14:06:01;;;;;;;12.73;4.23;;;;;;;11.84;48.06;99732.91;10408383;28;20312;-69
2022/11/24 14:11:12;;;;;;;8.43;3.40;;;;;;;12.09;47.51;99728.75;10416678;28;20235;-67
2022/11/24 14:16:17;;;;;;;7.50;3.83;;;;;;;11.47;47.78;99719.53;10414534;28;20243;-69
2022/11/24 14:21:29;;;;;;;11.23;4.37;;;;;;;12.76;47.13;99739.06;10414727;28;20232;-66
2022/11/24 14:26:34;;;;;;;10.50;4.43;;;;;;;11.74;47.78;99717.97;10413270;28;20239;-67
2022/11/24 14:31:36;;;;;;;13.67;5.20;;;;;;;12.30;47.80;99711.75;10422666;28;20236;-67
2022/11/24 14:36:38;;;;;;;9.43;4.10;;;;;;;11.31;48.31;99715.28;10410911;28;20234;-67
2022/11/24 14:41:42;;;;;;;11.27;4.30;;;;;;;12.16;47.72;99710.88;10410722;28;20225;-67
2022/11/24 14:46:44;;;;;;;9.63;4.60;;;;;;;11.44;48.20;99722.63;10410331;28;20875;-67
2022/11/24 14:51:54;;;;;;;12.70;5.63;;;;;;;11.11;48.68;99716.94;10415267;28;20232;-67
2022/11/24 14:57:04;;;;;;;13.80;9.03;;;;;;;11.81;47.05;99700.09;10401238;28;20241;-68
2022/11/24 15:02:43;;;;;;;7.97;5.63;;;;;;;11.67;47.14;99711.72;10411174;28;20239;-68
2022/11/24 15:07:46;;;;;;;23.17;13.27;;;;;;;12.31;46.58;99709.91;10410428;28;20229;-66
2022/11/24 15:12:53;;;;;;;37.53;23.07;;;;;;;12.42;45.42;99706.66;10399910;28;21006;-66
2022/11/24 15:17:59;;;;;;;17.63;8.27;;;;;;;12.79;45.76;99718.03;10395663;28;20291;-66
2022/11/24 15:23:24;;;;;;;11.97;5.40;;;;;;;12.52;45.94;99700.97;10411250;28;20293;-65
2022/11/24 15:28:26;;;;;;;6.23;3.40;;;;;;;11.59;46.81;99727.91;10390846;28;20232;-71
2022/11/24 15:33:28;;;;;;;7.90;3.00;;;;;;;10.09;48.34;99742.53;10409842;28;20220;-71
2022/11/24 15:38:30;;;;;;;9.00;5.03;;;;;;;10.79;47.97;99713.69;10411693;28;20302;-73
2022/11/24 15:43:39;;;;;;;9.47;3.87;;;;;;;10.03;48.40;99748.63;10422853;28;20235;-68
2022/11/24 15:48:41;;;;;;;13.67;4.23;;;;;;;10.31;48.61;99727.44;10408485;28;20798;-73
2022/11/24 15:53:49;;;;;;;10.40;5.33;;;;;;;11.50;47.27;99675.47;10417469;28;20228;-73
2022/11/24 15:58:53;;;;;;;9.03;5.13;;;;;;;9.76;48.12;99708.06;10423291;28;20228;-66
2022/11/24 16:03:54;;;;;;;7.10;4.33;;;;;;;9.55;49.40;99722.94;10430674;28;20236;-72
2022/11/24 16:08:57;;;;;;;35.57;17.37;;;;;;;11.62;46.84;99639.06;10440909;28;20243;-70
2022/11/24 16:13:58;;;;;;;40.03;21.00;;;;;;;11.29;46.83;99701.25;10432029;28;20240;-71
2022/11/24 16:19:00;;;;;;;40.87;26.00;;;;;;;9.46;49.07;99717.84;10422191;28;20704;-71
2022/11/24 16:24:02;;;;;;;11.83;5.20;;;;;;;11.55;45.83;99665.81;10427708;28;20264;-70
2022/11/24 16:29:04;;;;;;;10.37;4.27;;;;;;;12.89;43.66;99680.88;10422982;28;20235;-70
2022/11/24 16:34:06;;;;;;;8.97;4.40;;;;;;;12.99;43.60;99687.69;10424372;28;20225;-69
2022/11/24 16:39:08;;;;;;;14.87;4.83;;;;;;;11.37;45.63;99727.94;10422111;28;20231;-68
2022/11/24 16:44:10;;;;;;;24.07;14.53;;;;;;;12.74;44.23;99705.19;10420795;28;20227;-71
2022/11/24 16:49:11;;;;;;;13.70;7.97;;;;;;;10.52;46.27;99748.09;10403521;28;20720;-70
2022/11/24 16:54:13;;;;;;;17.57;9.30;;;;;;;12.22;44.15;99666.31;10398691;28;20240;-66
2022/11/24 16:59:15;;;;;;;13.80;5.70;;;;;;;10.91;46.00;99736.25;10412084;28;20224;-67
2022/11/24 17:04:16;;;;;;;9.17;5.37;;;;;;;10.69;46.89;99754.09;10423171;28;20605;-69
2022/11/24 17:09:18;;;;;;;20.57;16.10;;;;;;;10.20;48.31;99744.75;10420025;28;20584;-69
2022/11/24 17:14:20;;;;;;;12.63;7.60;;;;;;;10.43;47.44;99728.63;10402661;28;20244;-70
2022/11/24 17:19:21;;;;;;;10.57;5.43;;;;;;;11.28;46.78;99664.75;10405258;28;20236;-70
2022/11/24 17:24:23;;;;;;;11.37;4.40;;;;;;;12.10;44.87;99649.13;10404328;28;20744;-67
2022/11/24 17:29:25;;;;;;;9.63;5.77;;;;;;;11.61;45.09;99666.91;10416251;28;20236;-70
2022/11/24 17:34:26;;;;;;;13.27;7.23;;;;;;;11.67;45.41;99674.19;10420074;28;20289;-70
2022/11/24 17:39:28;;;;;;;12.97;6.63;;;;;;;10.94;46.14;99732.41;10418729;28;20240;-66
2022/11/24 17:44:30;;;;;;;13.93;6.43;;;;;;;12.02;45.36;99701.06;10416368;28;20629;-72
2022/11/24 17:49:32;;;;;;;12.97;7.73;;;;;;;11.32;45.87;99733.03;10401277;28;20321;-71
2022/11/24 17:54:34;;;;;;;18.57;9.67;;;;;;;11.32;46.25;99714.28;10406698;28;20328;-69
2022/11/24 17:59:52;;;;;;;15.63;7.00;;;;;;;10.57;47.11;99755.56;10426689;28;20640;-68
2022/11/24 18:04:54;;;;;;;10.57;8.00;;;;;;;11.56;45.84;99691.59;10416396;28;20224;-71
2022/11/24 18:09:56;;;;;;;15.80;8.70;;;;;;;10.46;47.16;99738.97;10402610;28;20275;-73
2022/11/24 18:14:58;;;;;;;16.97;8.47;;;;;;;12.40;44.51;99676.53;10407065;28;20235;-71
2022/11/24 18:20:00;;;;;;;19.73;12.03;;;;;;;11.81;45.28;99683.16;10410826;28;20247;-71
2022/11/24 18:25:02;;;;;;;14.43;8.27;;;;;;;10.05;48.15;99701.13;10402885;28;20239;-70
2022/11/24 18:30:04;;;;;;;14.90;8.20;;;;;;;9.69;49.08;99693.78;10401924;28;20263;-68
2022/11/24 18:35:07;;;;;;;12.37;6.93;;;;;;;9.59;49.22;99676.13;10401736;28;20224;-73
2022/11/24 18:40:09;;;;;;;13.37;5.57;;;;;;;9.23;49.75;99649.25;10397444;28;20206;-73
2022/11/24 18:45:10;;;;;;;12.70;5.53;;;;;;;11.58;47.00;99565.47;10400312;28;20243;-70
2022/11/24 18:50:12;;;;;;;10.97;5.20;;;;;;;10.08;48.34;99682.88;10396894;28;20665;-67
2022/11/24 18:55:14;;;;;;;10.03;5.53;;;;;;;9.81;49.31;99670.13;10399395;28;20247;-71
2022/11/24 19:00:16;;;;;;;12.07;4.97;;;;;;;10.97;47.46;99614.22;10399061;28;20217;-69
2022/11/24 19:05:19;;;;;;;10.57;5.17;;;;;;;11.92;45.56;99594.13;10399656;28;21013;-70
2022/11/24 19:10:20;;;;;;;10.50;5.40;;;;;;;11.15;46.20;99651.25;10381010;28;20220;-68
2022/11/24 19:15:22;;;;;;;12.43;5.23;;;;;;;10.98;46.12;99658.69;10356745;28;20217;-66
2022/11/24 19:20:24;;;;;;;14.67;5.70;;;;;;;11.33;46.85;99635.56;10397271;28;20217;-68
2022/11/24 19:25:25;;;;;;;12.83;6.80;;;;;;;9.78;47.76;99655.25;10397041;28;21669;-68
2022/11/24 19:30:28;;;;;;;18.70;11.43;;;;;;;9.29;49.15;99632.50;10402333;28;20282;-64
2022/11/24 19:35:29;;;;;;;30.57;19.80;;;;;;;9.92;47.30;99667.84;10411113;28;20236;-71
2022/11/24 19:40:31;;;;;;;21.90;15.07;;;;;;;8.85;49.52;99604.59;10410231;28;20298;-67
2022/11/24 19:45:32;;;;;;;18.23;9.53;;;;;;;8.50;50.28;99597.97;10413170;28;20286;-67
2022/11/24 19:50:34;;;;;;;14.10;9.03;;;;;;;10.45;47.29;99590.16;10436020;28;20239;-68
2022/11/24 19:55:36;;;;;;;14.47;8.87;;;;;;;8.23;50.27;99562.78;10435772;28;20239;-68
2022/11/24 20:00:37;;;;;;;12.33;8.07;;;;;;;7.92;51.85;99547.63;10426362;28;20778;-69
2022/11/24 20:05:39;;;;;;;10.43;6.63;;;;;;;8.84;51.04;99618.97;10427678;28;20248;-69
2022/11/24 20:10:41;;;;;;;11.70;5.77;;;;;;;9.53;49.09;99627.94;10425051;28;20258;-67
2022/11/24 20:15:42;;;;;;;11.87;6.43;;;;;;;8.81;50.45;99619.31;10422276;28;20709;-66
2022/11/24 20:20:44;;;;;;;16.17;6.83;;;;;;;9.40;49.91;99608.03;10417087;28;20233;-68
2022/11/24 20:25:46;;;;;;;9.90;5.97;;;;;;;8.48;51.49;99595.50;10368062;28;20236;-67
2022/11/24 20:30:48;;;;;;;17.37;6.43;;;;;;;8.84;50.62;99610.97;10430446;28;20228;-69
2022/11/24 20:35:50;;;;;;;11.53;6.20;;;;;;;9.52;50.80;99580.91;10430308;28;20234;-65
2022/11/24 20:40:52;;;;;;;13.57;6.13;;;;;;;9.88;49.23;99583.69;10427496;28;20240;-69
2022/11/24 20:46:01;;;;;;;11.70;5.77;;;;;;;8.70;51.27;99617.03;10362331;28;20289;-65
2022/11/24 20:51:05;;;;;;;15.03;6.43;;;;;;;8.44;51.60;99593.38;10375451;28;20654;-68
2022/11/24 20:56:14;;;;;;;9.57;5.40;;;;;;;9.23;50.80;99593.19;10411301;28;20237;-66
2022/11/24 21:01:24;;;;;;;11.47;5.30;;;;;;;9.10;50.57;99599.13;10428342;28;20228;-66
2022/11/24 21:06:27;;;;;;;9.57;6.07;;;;;;;8.54;51.81;99588.66;10431728;28;20239;-66
2022/11/24 21:11:29;;;;;;;14.17;6.30;;;;;;;8.54;51.60;99593.97;10419117;28;20283;-63
2022/11/24 21:16:39;;;;;;;12.57;7.10;;;;;;;8.06;51.58;99569.22;10408432;28;20293;-66
2022/11/24 21:21:41;;;;;;;13.30;6.67;;;;;;;8.28;51.84;99579.09;10401829;28;20230;-66
2022/11/24 21:26:50;;;;;;;17.37;6.90;;;;;;;9.05;50.53;99590.81;10402264;28;20267;-66
2022/11/24 21:31:51;;;;;;;8.73;6.67;;;;;;;9.01;50.14;99602.84;10414880;28;20242;-67
2022/11/24 21:36:53;;;;;;;12.70;7.57;;;;;;;8.84;50.60;99604.78;10425987;28;20229;-67
2022/11/24 21:41:55;;;;;;;16.00;9.23;;;;;;;8.96;49.55;99613.22;10432554;28;20893;-67
2022/11/24 21:46:56;;;;;;;11.93;8.30;;;;;;;9.70;47.97;99599.22;10428279;28;20243;-64
2022/11/24 21:51:58;;;;;;;13.00;7.50;;;;;;;7.12;52.08;99539.63;10430617;28;20667;-63
2022/11/24 21:57:00;;;;;;;11.67;7.23;;;;;;;8.75;51.03;99588.00;10428981;28;20248;-64
2022/11/24 22:02:01;;;;;;;14.23;7.40;;;;;;;9.97;46.98;99565.72;10422674;28;20239;-64
2022/11/24 22:07:03;;;;;;;25.10;16.17;;;;;;;7.22;50.65;99564.22;10430914;28;20604;-64
2022/11/24 22:12:05;;;;;;;19.63;11.87;;;;;;;8.44;49.36;99596.84;10413739;28;20261;-63
2022/11/24 22:17:07;;;;;;;16.20;9.57;;;;;;;9.49;47.44;99600.78;10403655;28;20625;-64
2022/11/24 22:22:08;;;;;;;15.57;9.37;;;;;;;9.77;46.70;99602.84;10404175;28;21067;-63
2022/11/24 22:27:10;;;;;;;16.80;8.80;;;;;;;8.24;49.49;99640.94;10405443;28;20233;-64
2022/11/24 22:32:12;;;;;;;14.23;8.33;;;;;;;8.42;49.94;99636.22;10405887;28;20239;-64
2022/11/24 22:37:13;;;;;;;12.40;8.53;;;;;;;9.73;47.92;99610.38;10406937;28;20232;-64
2022/11/24 22:42:15;;;;;;;12.47;6.40;;;;;;;8.80;49.03;99656.84;10402746;28;20263;-64
2022/11/24 22:47:17;;;;;;;14.00;7.67;;;;;;;7.53;51.50;99604.28;10404316;28;20612;-67
2022/11/24 22:52:18;;;;;;;14.33;7.23;;;;;;;8.79;49.77;99623.16;10399314;28;20234;-63
2022/11/24 22:57:20;;;;;;;16.37;8.90;;;;;;;8.54;50.31;99622.47;10401833;28;20236;-66
2022/11/24 23:02:22;;;;;;;18.80;8.53;;;;;;;9.74;48.30;99595.19;10399640;28;20324;-66
2022/11/24 23:07:23;;;;;;;12.90;7.50;;;;;;;9.67;48.28;99645.00;10397128;28;20239;-63
2022/11/24 23:12:25;;;;;;;12.93;7.67;;;;;;;9.39;47.50;99645.59;10377894;28;20209;-66
2022/11/24 23:17:27;;;;;;;15.97;8.20;;;;;;;9.18;47.23;99667.63;10401196;28;20240;-63
2022/11/24 23:22:28;;;;;;;13.80;8.10;;;;;;;9.19;47.42;99682.63;10403184;28;20737;-64
2022/11/24 23:27:30;;;;;;;21.27;11.33;;;;;;;7.86;48.39;99620.22;10390677;28;20244;-64
2022/11/24 23:32:32;;;;;;;13.60;8.23;;;;;;;8.40;49.16;99656.03;10378990;28;20244;-64
2022/11/24 23:37:33;;;;;;;13.50;8.33;;;;;;;7.49;50.76;99610.13;10401127;28;20232;-64
2022/11/24 23:42:55;;;;;;;13.77;9.57;;;;;;;7.70;50.62;99620.25;10400417;28;20283;-64
2022/11/24 23:47:57;;;;;;;15.90;9.20;;;;;;;8.51;50.27;99630.84;10389535;28;20637;-64
2022/11/24 23:52:59;;;;;;;12.83;8.33;;;;;;;8.27;50.49;99630.75;10401741;28;20740;-64